Saturday, July 21, 2018, 3:35 PM EDT
Back to Local

KISP, Islip Long Island Mac Art

Location: Ronkonkoma, NY, United States Lat: 40.8
Local Time: 3:35 PM EDT (19:35 GMT) Lon: -73.1
Time Zone: US/Eastern Elev: 98 ft

Show me the last for .
Show Decoded

2018-07-21 14:56 METAR KISP 211856Z 09013G18KT 10SM FEW040 SCT150 BKN250 23/16 A3006 RMK AO2 PK
                 WND 12026/1812 SLP178 T02330161 =
2018-07-21 13:56 METAR KISP 211756Z 09016G21KT 10SM FEW040 SCT150 BKN250 24/14 A3007 RMK AO2
                 SLP183 T02390144 10250 20211 56015 =
2018-07-21 12:56 METAR KISP 211656Z 11015G23KT 10SM FEW040 SCT140 BKN250 24/13 A3009 RMK AO2
                 SLP187 T02390133 =
2018-07-21 11:56 METAR KISP 211556Z 10012G20KT 10SM FEW035 SCT140 SCT250 24/13 A3010 RMK AO2
                 SLP193 T02440128 =
2018-07-21 10:56 METAR KISP 211456Z 09011KT 10SM FEW033 SCT140 BKN250 24/14 A3012 RMK AO2 SLP197
                 T02390144 53003 =
2018-07-21 09:56 METAR KISP 211356Z 11014KT 10SM FEW040 SCT140 SCT250 23/14 A3011 RMK AO2 SLP194
                 T02280139 =
2018-07-21 08:56 METAR KISP 211256Z 11010KT 10SM FEW040 SCT150 SCT250 22/13 A3010 RMK AO2 SLP192
                 T02220133 =
2018-07-21 07:56 METAR KISP 211156Z 08007KT 10SM FEW035 SCT150 SCT250 21/14 A3011 RMK AO2 SLP195
                 T02110144 10211 20167 53001 =
2018-07-21 06:56 METAR KISP 211056Z 08005KT 10SM FEW030 SCT150 SCT250 18/15 A3011 RMK AO2 SLP194
                 T01830150 =
2018-07-21 05:56 METAR KISP 210956Z 07005KT 10SM FEW028 SCT150 BKN250 17/16 A3010 RMK AO2 SLP192
                 T01670156 =
2018-07-21 04:56 METAR KISP 210856Z AUTO 07005KT 10SM CLR 17/16 A3010 RMK AO2 SLP193 T01720156
                 56003 =
2018-07-21 03:56 METAR KISP 210756Z AUTO 00000KT 10SM FEW032 17/16 A3011 RMK AO2 SLP196 T01720156
                 =
2018-07-21 02:56 METAR KISP 210656Z AUTO 00000KT 10SM CLR 17/16 A3010 RMK AO2 SLP192 T01720156 =
2018-07-21 01:56 METAR KISP 210556Z AUTO 03003KT 10SM CLR 17/16 A3011 RMK AO2 SLP196 T01720156
                 10228 20172 58006 =
2018-07-21 00:56 METAR KISP 210456Z AUTO 00000KT 10SM CLR 18/16 A3012 RMK AO2 SLP200 T01830156
                 402720161 =
2018-07-20 23:56 METAR KISP 210356Z 12004KT 10SM FEW150 BKN250 18/15 A3013 RMK AO2 SLP202 LAST
                 T01830150 =
2018-07-20 22:56 METAR KISP 210256Z 11003KT 10SM FEW150 BKN250 19/15 A3013 RMK AO2 SLP203
                 T01940150 58001 =
2018-07-20 21:56 METAR KISP 210156Z 17004KT 10SM FEW150 BKN250 21/14 A3014 RMK AO2 SLP206
                 T02110144 =
2018-07-20 20:56 METAR KISP 210056Z 17005KT 10SM FEW150 SCT250 22/14 A3013 RMK AO2 SLP203
                 T02170144 =
2018-07-20 19:56 METAR KISP 202356Z 16008KT 10SM FEW150 SCT250 23/14 A3013 RMK AO2 SLP204
                 T02280144 10272 20228 55001 =
2018-07-20 18:56 METAR KISP 202256Z 17009KT 10SM FEW250 24/14 A3013 RMK AO2 SLP202 T02390139 =
2018-07-20 17:56 METAR KISP 202156Z 18008KT 10SM FEW055 FEW250 25/11 A3013 RMK AO2 SLP203
                 T02500111 =
2018-07-20 16:56 METAR KISP 202056Z 16010KT 10SM FEW250 26/11 A3014 RMK AO2 SLP205 T02560111
                 56012 =
2018-07-20 15:56 METAR KISP 201956Z 16011KT 10SM FEW250 27/11 A3015 RMK AO2 SLP208 T02670106 =

Support USWX by starting your Amazon purchase here.